| time (UTC) | temp C | wind direction | speed KPH | gust KPH | rain 1hr cm | rain 24hr cm | rain mn cm | humidity % | barometer mb |
| 20260503202626 | 15 | 9 | 1.6 | 14.5 | 0.00 | 0.66 | 0.64 | 96 | 1014.4 |
| 20260503202118 | 15 | 315 | 1.6 | 11.3 | 0.00 | 0.66 | 0.64 | 96 | 1014.4 |
| 20260503201324 | 15 | 325 | 1.6 | 11.3 | 0.00 | 0.66 | 0.64 | 96 | 1014.5 |
| 20260503200813 | 15 | 336 | 0.0 | 8.0 | 0.00 | 0.66 | 0.64 | 96 | 1014.4 |
| 20260503200014 | 15 | 323 | 1.6 | 12.9 | 0.00 | 0.66 | 0.64 | 96 | 1014.3 |
| 20260503195459 | 15 | 314 | 1.6 | 12.9 | 0.00 | 0.66 | 0.64 | 96 | 1014.3 |
| 20260503194949 | 15 | 351 | 1.6 | 12.9 | 0.00 | 0.66 | 0.64 | 96 | 1014.4 |
| 20260503194458 | 15 | 331 | 1.6 | 12.9 | 0.00 | 0.66 | 0.64 | 96 | 1014.4 |
| 20260503193949 | 15 | 321 | 1.6 | 8.0 | 0.00 | 0.66 | 0.64 | 96 | 1014.3 |
| 20260503193433 | 15 | 345 | 0.0 | 8.0 | 0.00 | 0.66 | 0.64 | 96 | 1014.3 |
| 20260503192926 | 15 | 338 | 0.0 | 4.8 | 0.00 | 0.66 | 0.64 | 96 | 1014.4 |
| 20260503192406 | 15 | 327 | 0.0 | 0.0 | 0.00 | 0.66 | 0.64 | 96 | 1014.3 |
| 20260503191900 | 15 | 327 | 0.0 | 1.6 | 0.00 | 0.66 | 0.64 | 96 | 1014.4 |
| 20260503191355 | 15 | 332 | 0.0 | 0.0 | 0.00 | 0.66 | 0.64 | 96 | 1014.5 |
| 20260503190847 | 15 | 331 | 0.0 | 0.0 | 0.00 | 0.66 | 0.64 | 96 | 1014.2 |
| 20260503190336 | 15 | 325 | 0.0 | 0.0 | 0.00 | 0.66 | 0.64 | 96 | 1014.3 |
| 20260503185844 | 15 | 325 | 0.0 | 3.2 | 0.00 | 0.66 | 0.64 | 96 | 1014.5 |
| 20260503185345 | 15 | 349 | 0.0 | 4.8 | 0.00 | 0.66 | 0.64 | 96 | 1014.5 |
| 20260503184841 | 15 | 307 | 0.0 | 4.8 | 0.00 | 0.66 | 0.64 | 96 | 1014.6 |
| 20260503184322 | 15 | 326 | 0.0 | 0.0 | 0.00 | 0.66 | 0.64 | 96 | 1014.6 |
| 20260503183811 | 15 | 327 | 0.0 | 1.6 | 0.00 | 0.66 | 0.64 | 96 | 1014.6 |
| 20260503183314 | 15 | 327 | 0.0 | 1.6 | 0.00 | 0.66 | 0.64 | 96 | 1014.6 |
| 20260503182808 | 15 | 327 | 0.0 | 0.0 | 0.00 | 0.66 | 0.64 | 96 | 1014.6 |
| 20260503182012 | 15 | 329 | 0.0 | 1.6 | 0.00 | 0.66 | 0.64 | 96 | 1014.6 |
| 20260503181508 | 15 | 327 | 0.0 | 0.0 | 0.00 | 0.66 | 0.64 | 96 | 1014.8 |
| 20260503181002 | 15 | 327 | 0.0 | 0.0 | 0.00 | 0.66 | 0.64 | 96 | 1014.8 |
| 20260503180504 | 15 | 327 | 0.0 | 0.0 | 0.00 | 0.64 | 0.61 | 96 | 1014.9 |
| 20260503175957 | 15 | 327 | 0.0 | 0.0 | 0.08 | 0.64 | 0.61 | 96 | 1014.8 |
| 20260503175506 | 15 | 327 | 0.0 | 0.0 | 0.08 | 0.64 | 0.61 | 96 | 1014.9 |
| 20260503175009 | 15 | 327 | 0.0 | 1.6 | 0.08 | 0.64 | 0.61 | 96 | 1015.0 |
| 20260503174510 | 15 | 327 | 0.0 | 1.6 | 0.08 | 0.64 | 0.61 | 96 | 1015.1 |
| 20260503174010 | 15 | 325 | 0.0 | 3.2 | 0.08 | 0.64 | 0.58 | 96 | 1015.1 |
| 20260503173206 | 15 | 323 | 0.0 | 0.0 | 0.33 | 0.64 | 0.58 | 96 | 1015.1 |
| 20260503172705 | 15 | 323 | 0.0 | 0.0 | 0.08 | 0.61 | 0.56 | 96 | 1015.2 |
| 20260503172200 | 15 | 323 | 0.0 | 0.0 | 0.08 | 0.58 | 0.56 | 96 | 1015.1 |
| 20260503171647 | 15 | 322 | 0.0 | 0.0 | 0.13 | 0.58 | 0.56 | 95 | 1015.1 |
| 20260503170851 | 15 | 323 | 0.0 | 0.0 | 0.36 | 0.56 | 0.56 | 95 | 1015.3 |
| 20260503170330 | 15 | 322 | 0.0 | 0.0 | 0.00 | 0.56 | 0.51 | 95 | 1015.5 |
| 20260503150636 | 15 | 319 | 0.0 | 0.0 | 0.28 | 0.41 | 0.36 | 94 | 1016.5 |
| 20260503150139 | 15 | 319 | 0.0 | 3.2 | 0.61 | 0.38 | 0.36 | 94 | 1016.6 |
| 20260503131131 | 16 | 263 | 0.0 | 11.3 | 0.00 | 0.00 | 0.00 | 88 | 1017.3 |
| 20260503130633 | 16 | 283 | 0.0 | 0.0 | 0.00 | 0.00 | 0.00 | 88 | 1017.1 |
| 20260503130136 | 16 | 262 | 0.0 | 11.3 | 0.00 | 0.00 | 0.00 | 88 | 1017.1 |
| 20260503120150 | 15 | 288 | 0.0 | 0.0 | 0.00 | 0.00 | 0.00 | 81 | 1017.3 |
| 20260503110445 | 16 | 288 | 0.0 | 0.0 | 0.00 | 0.00 | 0.00 | 79 | 1017.0 |
| 20260503100137 | 16 | 288 | 0.0 | 0.0 | 0.00 | 0.00 | 0.00 | 75 | 1016.8 |
| 20260503090211 | 18 | 288 | 0.0 | 0.0 | 0.00 | 0.00 | 0.00 | 68 | 1016.9 |
| 20260503081526 | 19 | 288 | 0.0 | 0.0 | 0.00 | 0.00 | 0.00 | 64 | 1016.7 |
| 20260503081011 | 19 | 288 | 0.0 | 0.0 | 0.00 | 0.00 | 0.00 | 63 | 1016.7 |
| 20260503080502 | 20 | 288 | 0.0 | 0.0 | 0.00 | 0.00 | 0.00 | 63 | 1016.7 |
| 20260503072642 | 20 | 310 | 3.2 | 12.9 | 0.00 | 0.00 | 0.00 | 61 | 1016.5 |
| 20260503072123 | 20 | 306 | 3.2 | 12.9 | 0.00 | 0.00 | 0.00 | 61 | 1016.5 |
| 20260503071304 | 20 | 312 | 3.2 | 11.3 | 0.00 | 0.00 | 0.00 | 60 | 1016.5 |
| 20260503070801 | 21 | 296 | 0.0 | 11.3 | 0.00 | 0.00 | 0.00 | 61 | 1016.4 |
| 20260503070258 | 21 | 327 | 0.0 | 11.3 | 0.00 | 0.00 | 0.00 | 60 | 1016.5 |
| 20260503060231 | 21 | 325 | 1.6 | 12.9 | 0.00 | 0.00 | 0.00 | 59 | 1016.4 |
| 20260503054920 | 21 | 326 | 1.6 | 11.3 | 0.00 | 0.00 | 0.00 | 59 | 1016.6 |
| 20260503054420 | 21 | 321 | 0.0 | 11.3 | 0.00 | 0.00 | 0.00 | 60 | 1016.6 |
| 20260503053622 | 21 | 325 | 0.0 | 8.0 | 0.00 | 0.00 | 0.00 | 59 | 1016.7 |
| 20260503053111 | 21 | 321 | 0.0 | 8.0 | 0.00 | 0.00 | 0.00 | 59 | 1016.7 |
| 20260503052552 | 21 | 333 | 0.0 | 12.9 | 0.00 | 0.00 | 0.00 | 59 | 1016.7 |
| 20260503052102 | 22 | 348 | 3.2 | 12.9 | 0.00 | 0.00 | 0.00 | 58 | 1016.7 |
| 20260503051243 | 22 | 15 | 3.2 | 12.9 | 0.00 | 0.00 | 0.00 | 55 | 1016.7 |
| 20260503050745 | 22 | 343 | 4.8 | 16.1 | 0.00 | 0.00 | 0.00 | 55 | 1016.7 |
| 20260503045925 | 22 | 343 | 4.8 | 16.1 | 0.00 | 0.00 | 0.00 | 55 | 1016.8 |
| 20260503045432 | 22 | 327 | 4.8 | 16.1 | 0.00 | 0.00 | 0.00 | 56 | 1016.8 |
| 20260503044912 | 23 | 5 | 1.6 | 16.1 | 0.00 | 0.00 | 0.00 | 55 | 1016.8 |
| 20260503044053 | 22 | 348 | 0.0 | 6.4 | 0.00 | 0.00 | 0.00 | 56 | 1016.9 |
| 20260503043601 | 22 | 355 | 0.0 | 6.4 | 0.00 | 0.00 | 0.00 | 58 | 1017.0 |
| 20260503042752 | 22 | 315 | 0.0 | 4.8 | 0.00 | 0.00 | 0.00 | 60 | 1017.1 |
| 20260503042233 | 21 | 315 | 0.0 | 4.8 | 0.00 | 0.00 | 0.00 | 59 | 1017.1 |
| 20260503041742 | 21 | 325 | 0.0 | 11.3 | 0.00 | 0.00 | 0.00 | 59 | 1017.2 |
| 20260503041226 | 21 | 325 | 1.6 | 12.9 | 0.00 | 0.00 | 0.00 | 59 | 1017.2 |
| 20260503040717 | 21 | 252 | 1.6 | 12.9 | 0.00 | 0.00 | 0.00 | 58 | 1017.2 |
| 20260503040222 | 21 | 5 | 3.2 | 14.5 | 0.00 | 0.00 | 0.00 | 58 | 1017.3 |
| 20260503035723 | 21 | 331 | 3.2 | 14.5 | 0.00 | 0.00 | 0.00 | 58 | 1017.3 |
| 20260503035219 | 22 | 355 | 3.2 | 14.5 | 0.00 | 0.00 | 0.00 | 58 | 1017.4 |
| 20260503034724 | 22 | 332 | 3.2 | 14.5 | 0.00 | 0.00 | 0.00 | 57 | 1017.3 |
| 20260503034225 | 22 | 331 | 1.6 | 14.5 | 0.00 | 0.00 | 0.00 | 57 | 1017.5 |
| 20260503033725 | 22 | 0 | 1.6 | 14.5 | 0.00 | 0.00 | 0.00 | 58 | 1017.5 |
| 20260503032906 | 21 | 325 | 3.2 | 19.3 | 0.00 | 0.00 | 0.00 | 58 | 1017.7 |
| 20260503032404 | 21 | 326 | 4.8 | 19.3 | 0.00 | 0.00 | 0.00 | 58 | 1017.8 |
| 20260503031910 | 22 | 350 | 6.4 | 19.3 | 0.00 | 0.00 | 0.00 | 57 | 1017.8 |
| 20260503031353 | 22 | 323 | 4.8 | 16.1 | 0.00 | 0.00 | 0.00 | 56 | 1017.9 |
| 20260503030843 | 22 | 355 | 4.8 | 14.5 | 0.00 | 0.00 | 0.00 | 57 | 1018.1 |
| 20260503030024 | 22 | 315 | 3.2 | 16.1 | 0.00 | 0.00 | 0.00 | 58 | 1018.2 |
| 20260503025528 | 22 | 327 | 3.2 | 16.1 | 0.00 | 0.00 | 0.00 | 58 | 1018.3 |
| 20260503025013 | 21 | 336 | 3.2 | 16.1 | 0.00 | 0.00 | 0.00 | 59 | 1018.4 |
| 20260503024502 | 21 | 323 | 3.2 | 12.9 | 0.00 | 0.00 | 0.00 | 60 | 1018.6 |
| 20260503023651 | 21 | 327 | 1.6 | 16.1 | 0.00 | 0.00 | 0.00 | 60 | 1018.7 |
| 20260503023155 | 21 | 344 | 1.6 | 16.1 | 0.00 | 0.00 | 0.00 | 61 | 1018.7 |
| 20260503022644 | 21 | 338 | 3.2 | 16.1 | 0.00 | 0.00 | 0.00 | 61 | 1018.7 |
| 20260503004004 | 19 | 324 | 1.6 | 9.7 | 0.00 | 0.00 | 0.00 | 66 | 1020.4 |
| 20260503003444 | 19 | 341 | 3.2 | 9.7 | 0.00 | 0.00 | 0.00 | 66 | 1020.4 |
| 20260503002941 | 19 | 5 | 1.6 | 9.7 | 0.00 | 0.00 | 0.00 | 67 | 1020.5 |
| 20260503002431 | 19 | 350 | 0.0 | 6.4 | 0.00 | 0.00 | 0.00 | 67 | 1020.5 |
| 20260503001626 | 18 | 344 | 0.0 | 4.8 | 0.00 | 0.00 | 0.00 | 69 | 1020.6 |
| 20260503001130 | 18 | 329 | 0.0 | 0.0 | 0.00 | 0.00 | 0.00 | 70 | 1020.7 |
| 20260503000625 | 18 | 328 | 0.0 | 1.6 | 0.00 | 0.00 | 0.00 | 71 | 1020.7 |
| 20260503000108 | 18 | 233 | 0.0 | 0.0 | 0.00 | 0.00 | 0.00 | 74 | 1020.8 |
| 20260502235611 | 17 | 233 | 0.0 | 0.0 | 0.00 | 0.00 | 0.00 | 76 | 1020.8 |
| 20260502235117 | 17 | 233 | 0.0 | 0.0 | 0.00 | 0.00 | 0.00 | 79 | 1020.8 |
| 20260502234603 | 16 | 233 | 0.0 | 0.0 | 0.00 | 0.00 | 0.00 | 83 | 1020.9 |
| 20260502234103 | 16 | 233 | 0.0 | 0.0 | 0.00 | 0.00 | 0.00 | 84 | 1020.9 |
| 20260502233611 | 16 | 233 | 0.0 | 0.0 | 0.00 | 0.00 | 0.00 | 86 | 1020.9 |
| 20260502233104 | 15 | 233 | 0.0 | 0.0 | 0.00 | 0.00 | 0.00 | 88 | 1020.9 |
| 20260502232558 | 15 | 233 | 0.0 | 0.0 | 0.00 | 0.00 | 0.00 | 91 | 1021.0 |
| 20260502232052 | 14 | 233 | 0.0 | 0.0 | 0.00 | 0.00 | 0.00 | 93 | 1021.0 |
| 20260502231554 | 14 | 233 | 0.0 | 0.0 | 0.00 | 0.00 | 0.00 | 95 | 1021.1 |
| 20260502231057 | 13 | 233 | 0.0 | 0.0 | 0.00 | 0.00 | 0.00 | 96 | 1021.0 |
| 20260502230552 | 13 | 233 | 0.0 | 0.0 | 0.00 | 0.00 | 0.00 | 96 | 1021.1 |
| 20260502230057 | 13 | 233 | 0.0 | 0.0 | 0.00 | 0.00 | 0.00 | 96 | 1021.1 |
| 20260502225251 | 12 | 233 | 0.0 | 0.0 | 0.00 | 0.00 | 0.00 | 96 | 1021.1 |
| 20260502224740 | 12 | 233 | 0.0 | 0.0 | 0.00 | 0.00 | 0.00 | 96 | 1021.1 |
| 20260502224237 | 12 | 233 | 0.0 | 0.0 | 0.00 | 0.00 | 0.00 | 96 | 1021.1 |
| 20260502223744 | 11 | 233 | 0.0 | 0.0 | 0.00 | 0.00 | 0.00 | 96 | 1021.0 |
| 20260502223246 | 11 | 233 | 0.0 | 0.0 | 0.00 | 0.00 | 0.00 | 96 | 1021.1 |
| 20260502222735 | 11 | 233 | 0.0 | 0.0 | 0.00 | 0.00 | 0.00 | 96 | 1021.1 |
| 20260502222222 | 11 | 233 | 0.0 | 0.0 | 0.00 | 0.00 | 0.00 | 96 | 1021.0 |
| 20260502221727 | 11 | 233 | 0.0 | 0.0 | 0.00 | 0.00 | 0.00 | 96 | 1021.0 |
| 20260502221212 | 11 | 233 | 0.0 | 0.0 | 0.00 | 0.00 | 0.00 | 96 | 1021.0 |
| 20260502220053 | 10 | 233 | 0.0 | 0.0 | 0.00 | 0.00 | 0.00 | 96 | 1020.9 |
| 20260502215555 | 10 | 233 | 0.0 | 0.0 | 0.00 | 0.00 | 0.00 | 96 | 1021.0 |
| 20260502214742 | 10 | 233 | 0.0 | 0.0 | 0.00 | 0.00 | 0.00 | 96 | 1020.9 |
| 20260502214232 | 10 | 233 | 0.0 | 0.0 | 0.00 | 0.00 | 0.00 | 96 | 1021.0 |
| 20260502213724 | 9 | 233 | 0.0 | 0.0 | 0.00 | 0.00 | 0.00 | 96 | 1020.9 |
| 20260502213225 | 9 | 233 | 0.0 | 0.0 | 0.00 | 0.00 | 0.00 | 96 | 1020.9 |
| 20260502212724 | 9 | 233 | 0.0 | 0.0 | 0.00 | 0.00 | 0.00 | 96 | 1020.9 |
| 20260502212218 | 9 | 233 | 0.0 | 0.0 | 0.00 | 0.00 | 0.00 | 96 | 1020.8 |
| 20260502211116 | 9 | 233 | 0.0 | 0.0 | 0.00 | 0.00 | 0.00 | 96 | 1020.6 |
| 20260502210600 | 9 | 233 | 0.0 | 0.0 | 0.00 | 0.00 | 0.00 | 96 | 1020.4 |
| 20260502205808 | 9 | 233 | 0.0 | 0.0 | 0.00 | 0.00 | 0.00 | 95 | 1020.4 |
| 20260502205256 | 9 | 233 | 0.0 | 0.0 | 0.00 | 0.00 | 0.00 | 95 | 1020.4 |
| 20260502204800 | 9 | 233 | 0.0 | 0.0 | 0.00 | 0.00 | 0.00 | 95 | 1020.4 |
| 20260502204308 | 9 | 233 | 0.0 | 0.0 | 0.00 | 0.00 | 0.00 | 96 | 1020.4 |
| 20260502203500 | 9 | 233 | 0.0 | 0.0 | 0.00 | 0.00 | 0.00 | 96 | 1020.4 |
| 20260502203006 | 9 | 233 | 0.0 | 0.0 | 0.00 | 0.00 | 0.00 | 96 | 1020.4 |